sensor_id;sensor_type;location;lat;lon;timestamp;pressure;altitude;pressure_sealevel;temperature;humidity
10510;BME280;5303;53.266;10.410;2023-05-12T00:01:45;101456.44;;;11.38;92.97
10510;BME280;5303;53.266;10.410;2023-05-12T00:04:10;101458.22;;;11.39;93.12
10510;BME280;5303;53.266;10.410;2023-05-12T00:06:35;101459.09;;;11.41;92.97
10510;BME280;5303;53.266;10.410;2023-05-12T00:09:00;101460.84;;;11.42;92.95
10510;BME280;5303;53.266;10.410;2023-05-12T00:11:26;101466.13;;;11.42;92.98
10510;BME280;5303;53.266;10.410;2023-05-12T00:13:53;101465.28;;;11.45;93.04
10510;BME280;5303;53.266;10.410;2023-05-12T00:16:18;101458.22;;;11.44;93.08
10510;BME280;5303;53.266;10.410;2023-05-12T00:18:44;101464.41;;;11.44;92.82
10510;BME280;5303;53.266;10.410;2023-05-12T00:21:09;101457.38;;;11.46;93.02
10510;BME280;5303;53.266;10.410;2023-05-12T00:23:36;101457.38;;;11.49;93.12
10510;BME280;5303;53.266;10.410;2023-05-12T00:26:01;101467.94;;;11.49;92.87
10510;BME280;5303;53.266;10.410;2023-05-12T00:28:26;101461.78;;;11.49;92.94
10510;BME280;5303;53.266;10.410;2023-05-12T00:30:52;101461.78;;;11.49;93.00
10510;BME280;5303;53.266;10.410;2023-05-12T00:33:17;101463.53;;;11.51;92.86
10510;BME280;5303;53.266;10.410;2023-05-12T00:35:42;101463.53;;;11.50;92.91
10510;BME280;5303;53.266;10.410;2023-05-12T00:38:11;101467.94;;;11.49;92.92
10510;BME280;5303;53.266;10.410;2023-05-12T00:40:37;101462.59;;;11.43;92.74
10510;BME280;5303;53.266;10.410;2023-05-12T00:43:02;101466.16;;;11.47;92.59
10510;BME280;5303;53.266;10.410;2023-05-12T00:45:28;101462.66;;;11.46;92.54
10510;BME280;5303;53.266;10.410;2023-05-12T00:47:54;101469.69;;;11.49;92.63
10510;BME280;5303;53.266;10.410;2023-05-12T00:50:19;101463.53;;;11.50;92.79
10510;BME280;5303;53.266;10.410;2023-05-12T00:52:45;101472.34;;;11.52;92.80
10510;BME280;5303;53.266;10.410;2023-05-12T00:55:11;101462.66;;;11.52;92.67
10510;BME280;5303;53.266;10.410;2023-05-12T00:57:37;101466.16;;;11.51;92.69
10510;BME280;5303;53.266;10.410;2023-05-12T01:00:03;101467.06;;;11.49;92.64
10510;BME280;5303;53.266;10.410;2023-05-12T01:02:29;101469.69;;;11.50;92.43
10510;BME280;5303;53.266;10.410;2023-05-12T01:04:54;101464.41;;;11.52;92.58
10510;BME280;5303;53.266;10.410;2023-05-12T01:07:24;101470.56;;;11.52;92.53
10510;BME280;5303;53.266;10.410;2023-05-12T01:09:57;101473.22;;;11.52;92.29
10510;BME280;5303;53.266;10.410;2023-05-12T01:12:23;101470.56;;;11.48;92.51
10510;BME280;5303;53.266;10.410;2023-05-12T01:14:49;101482.03;;;11.48;92.48
10510;BME280;5303;53.266;10.410;2023-05-12T01:17:18;101478.50;;;11.46;92.30
10510;BME280;5303;53.266;10.410;2023-05-12T01:19:58;101473.22;;;11.45;92.37
10510;BME280;5303;53.266;10.410;2023-05-12T01:22:25;101478.47;;;11.43;92.45
10510;BME280;5303;53.266;10.410;2023-05-12T01:24:56;101482.91;;;11.47;92.29
10510;BME280;5303;53.266;10.410;2023-05-12T01:27:22;101484.66;;;11.48;92.34
10510;BME280;5303;53.266;10.410;2023-05-12T01:29:50;101489.06;;;11.49;92.46
10510;BME280;5303;53.266;10.410;2023-05-12T01:32:17;101483.78;;;11.49;92.24
10510;BME280;5303;53.266;10.410;2023-05-12T01:34:43;101493.47;;;11.49;92.33
10510;BME280;5303;53.266;10.410;2023-05-12T01:37:09;101497.88;;;11.48;92.27
10510;BME280;5303;53.266;10.410;2023-05-12T01:39:35;101492.59;;;11.48;92.20
10510;BME280;5303;53.266;10.410;2023-05-12T01:42:01;101497.00;;;11.45;92.06
10510;BME280;5303;53.266;10.410;2023-05-12T01:44:26;101501.41;;;11.44;92.08
10510;BME280;5303;53.266;10.410;2023-05-12T01:46:52;101495.19;;;11.44;92.01
10510;BME280;5303;53.266;10.410;2023-05-12T01:49:17;101500.47;;;11.44;92.07
10510;BME280;5303;53.266;10.410;2023-05-12T01:51:42;101506.63;;;11.41;92.34
10510;BME280;5303;53.266;10.410;2023-05-12T01:54:08;101506.63;;;11.41;91.67
10510;BME280;5303;53.266;10.410;2023-05-12T01:56:33;101504.88;;;11.40;92.02
10510;BME280;5303;53.266;10.410;2023-05-12T01:58:58;101504.88;;;11.40;91.99
10510;BME280;5303;53.266;10.410;2023-05-12T02:01:23;101508.41;;;11.39;91.82
10510;BME280;5303;53.266;10.410;2023-05-12T02:03:55;101511.91;;;11.38;91.92
10510;BME280;5303;53.266;10.410;2023-05-12T02:06:20;101514.56;;;11.38;91.83
10510;BME280;5303;53.266;10.410;2023-05-12T02:08:46;101518.97;;;11.36;91.79
10510;BME280;5303;53.266;10.410;2023-05-12T02:11:12;101524.25;;;11.36;91.83
10510;BME280;5303;53.266;10.410;2023-05-12T02:13:37;101514.56;;;11.35;91.75
10510;BME280;5303;53.266;10.410;2023-05-12T02:16:02;101525.09;;;11.34;91.78
10510;BME280;5303;53.266;10.410;2023-05-12T02:18:28;101518.91;;;11.32;91.87
10510;BME280;5303;53.266;10.410;2023-05-12T02:20:53;101530.38;;;11.34;91.63
10510;BME280;5303;53.266;10.410;2023-05-12T02:23:19;101528.66;;;11.34;91.56
10510;BME280;5303;53.266;10.410;2023-05-12T02:25:44;101529.50;;;11.33;91.48
10510;BME280;5303;53.266;10.410;2023-05-12T02:28:10;101535.66;;;11.34;91.49
10510;BME280;5303;53.266;10.410;2023-05-12T02:30:36;101526.84;;;11.32;91.51
10510;BME280;5303;53.266;10.410;2023-05-12T02:33:01;101523.31;;;11.31;91.44
10510;BME280;5303;53.266;10.410;2023-05-12T02:35:29;101527.72;;;11.32;91.51
10510;BME280;5303;53.266;10.410;2023-05-12T02:37:54;101525.09;;;11.32;91.67
10510;BME280;5303;53.266;10.410;2023-05-12T02:40:20;101528.59;;;11.31;91.48
10510;BME280;5303;53.266;10.410;2023-05-12T02:42:45;101527.72;;;11.32;91.34
10510;BME280;5303;53.266;10.410;2023-05-12T02:45:10;101520.69;;;11.31;91.53
10510;BME280;5303;53.266;10.410;2023-05-12T02:47:36;101524.19;;;11.27;91.67
10510;BME280;5303;53.266;10.410;2023-05-12T02:50:01;101529.47;;;11.30;91.73
10510;BME280;5303;53.266;10.410;2023-05-12T02:52:26;101524.19;;;11.29;91.46
10510;BME280;5303;53.266;10.410;2023-05-12T02:54:52;101533.88;;;11.33;91.40
10510;BME280;5303;53.266;10.410;2023-05-12T02:57:17;101531.25;;;11.33;91.37
10510;BME280;5303;53.266;10.410;2023-05-12T02:59:42;101525.97;;;11.31;91.04
10510;BME280;5303;53.266;10.410;2023-05-12T03:02:08;101528.59;;;11.31;91.04
10510;BME280;5303;53.266;10.410;2023-05-12T03:04:33;101524.19;;;11.30;91.12
10510;BME280;5303;53.266;10.410;2023-05-12T03:06:59;101525.06;;;11.28;90.80
10510;BME280;5303;53.266;10.410;2023-05-12T03:09:24;101528.59;;;11.27;90.60
10510;BME280;5303;53.266;10.410;2023-05-12T03:11:50;101524.19;;;11.24;90.67
10510;BME280;5303;53.266;10.410;2023-05-12T03:14:15;101529.47;;;11.24;90.66
10510;BME280;5303;53.266;10.410;2023-05-12T03:16:40;101526.81;;;11.24;90.19
10510;BME280;5303;53.266;10.410;2023-05-12T03:19:05;101530.31;;;11.23;90.37
10510;BME280;5303;53.266;10.410;2023-05-12T03:21:31;101538.25;;;11.23;90.16
10510;BME280;5303;53.266;10.410;2023-05-12T03:23:56;101534.75;;;11.24;89.89
10510;BME280;5303;53.266;10.410;2023-05-12T03:26:22;101534.75;;;11.24;89.55
10510;BME280;5303;53.266;10.410;2023-05-12T03:28:47;101530.31;;;11.23;89.70
10510;BME280;5303;53.266;10.410;2023-05-12T03:31:12;101533.84;;;11.22;89.21
10510;BME280;5303;53.266;10.410;2023-05-12T03:33:38;101539.13;;;11.23;89.54
10510;BME280;5303;53.266;10.410;2023-05-12T03:36:03;101536.50;;;11.25;89.25
10510;BME280;5303;53.266;10.410;2023-05-12T03:38:29;101545.31;;;11.25;88.84
10510;BME280;5303;53.266;10.410;2023-05-12T03:41:04;101541.78;;;11.25;89.35
10510;BME280;5303;53.266;10.410;2023-05-12T03:43:30;101545.31;;;11.24;89.04
10510;BME280;5303;53.266;10.410;2023-05-12T03:45:55;101536.50;;;11.25;89.15
10510;BME280;5303;53.266;10.410;2023-05-12T03:48:21;101540.03;;;11.27;89.05
10510;BME280;5303;53.266;10.410;2023-05-12T03:50:46;101547.97;;;11.29;89.14
10510;BME280;5303;53.266;10.410;2023-05-12T03:53:11;101542.69;;;11.30;89.04
10510;BME280;5303;53.266;10.410;2023-05-12T03:55:37;101547.09;;;11.31;88.87
10510;BME280;5303;53.266;10.410;2023-05-12T03:58:02;101551.50;;;11.34;89.01
10510;BME280;5303;53.266;10.410;2023-05-12T04:00:27;101553.25;;;11.33;88.72
10510;BME280;5303;53.266;10.410;2023-05-12T04:02:52;101548.03;;;11.36;88.73
10510;BME280;5303;53.266;10.410;2023-05-12T04:05:18;101562.13;;;11.37;88.70
10510;BME280;5303;53.266;10.410;2023-05-12T04:07:43;101556.84;;;11.38;88.86
10510;BME280;5303;53.266;10.410;2023-05-12T04:10:08;101555.94;;;11.39;88.48
10510;BME280;5303;53.266;10.410;2023-05-12T04:12:33;101559.47;;;11.41;88.64
10510;BME280;5303;53.266;10.410;2023-05-12T04:14:59;101563.88;;;11.44;88.53
10510;BME280;5303;53.266;10.410;2023-05-12T04:17:24;101567.44;;;11.46;88.78
10510;BME280;5303;53.266;10.410;2023-05-12T04:19:49;101569.22;;;11.50;88.70
10510;BME280;5303;53.266;10.410;2023-05-12T04:22:16;101568.34;;;11.52;88.49
10510;BME280;5303;53.266;10.410;2023-05-12T04:24:41;101567.47;;;11.53;88.58
10510;BME280;5303;53.266;10.410;2023-05-12T04:27:07;101574.56;;;11.56;88.46
10510;BME280;5303;53.266;10.410;2023-05-12T04:29:32;101575.44;;;11.60;88.73
10510;BME280;5303;53.266;10.410;2023-05-12T04:31:58;101574.56;;;11.62;88.33
10510;BME280;5303;53.266;10.410;2023-05-12T04:34:24;101581.66;;;11.66;88.32
10510;BME280;5303;53.266;10.410;2023-05-12T04:36:49;101577.25;;;11.67;88.36
10510;BME280;5303;53.266;10.410;2023-05-12T04:39:15;101579.88;;;11.70;88.50
10510;BME280;5303;53.266;10.410;2023-05-12T04:41:41;101584.31;;;11.74;88.47
10510;BME280;5303;53.266;10.410;2023-05-12T04:44:06;101587.84;;;11.76;88.49
10510;BME280;5303;53.266;10.410;2023-05-12T04:46:31;101580.84;;;11.84;88.36
10510;BME280;5303;53.266;10.410;2023-05-12T04:48:57;101588.81;;;11.90;87.92
10510;BME280;5303;53.266;10.410;2023-05-12T04:51:22;101600.28;;;11.92;88.03
10510;BME280;5303;53.266;10.410;2023-05-12T04:53:47;101595.91;;;11.97;87.99
10510;BME280;5303;53.266;10.410;2023-05-12T04:56:13;101599.44;;;11.98;87.49
10510;BME280;5303;53.266;10.410;2023-05-12T04:58:38;101603.84;;;12.00;87.32
10510;BME280;5303;53.266;10.410;2023-05-12T05:01:03;101608.28;;;12.07;87.42
10510;BME280;5303;53.266;10.410;2023-05-12T05:03:29;101610.06;;;12.13;87.01
10510;BME280;5303;53.266;10.410;2023-05-12T05:05:54;101610.09;;;12.18;86.93
10510;BME280;5303;53.266;10.410;2023-05-12T05:08:19;101611.84;;;12.23;86.53
10510;BME280;5303;53.266;10.410;2023-05-12T05:10:44;101613.59;;;12.23;86.45
10510;BME280;5303;53.266;10.410;2023-05-12T05:13:10;101623.34;;;12.27;86.27
10510;BME280;5303;53.266;10.410;2023-05-12T05:15:35;101617.16;;;12.32;86.44
10510;BME280;5303;53.266;10.410;2023-05-12T05:18:00;101626.00;;;12.42;86.06
10510;BME280;5303;53.266;10.410;2023-05-12T05:20:26;101628.69;;;12.51;86.13
10510;BME280;5303;53.266;10.410;2023-05-12T05:22:52;101625.16;;;12.61;86.13
10510;BME280;5303;53.266;10.410;2023-05-12T05:25:18;101625.19;;;12.67;85.71
10510;BME280;5303;53.266;10.410;2023-05-12T05:27:43;101626.94;;;12.73;85.51
10510;BME280;5303;53.266;10.410;2023-05-12T05:30:08;101629.59;;;12.72;83.65
10510;BME280;5303;53.266;10.410;2023-05-12T05:32:34;101632.28;;;12.78;83.30
10510;BME280;5303;53.266;10.410;2023-05-12T05:35:01;101635.78;;;12.83;82.76
10510;BME280;5303;53.266;10.410;2023-05-12T05:37:26;101639.34;;;12.91;81.00
10510;BME280;5303;53.266;10.410;2023-05-12T05:39:52;101633.16;;;12.89;80.19
10510;BME280;5303;53.266;10.410;2023-05-12T05:42:17;101640.22;;;12.99;80.65
10510;BME280;5303;53.266;10.410;2023-05-12T05:44:43;101645.50;;;13.16;79.59
10510;BME280;5303;53.266;10.410;2023-05-12T05:47:08;101654.38;;;13.19;78.09
10510;BME280;5303;53.266;10.410;2023-05-12T05:49:33;101643.75;;;13.25;78.35
10510;BME280;5303;53.266;10.410;2023-05-12T05:51:58;101649.06;;;13.33;78.07
10510;BME280;5303;53.266;10.410;2023-05-12T05:54:24;101649.94;;;13.43;77.11
10510;BME280;5303;53.266;10.410;2023-05-12T05:56:49;101641.97;;;13.47;76.85
10510;BME280;5303;53.266;10.410;2023-05-12T05:59:15;101652.53;;;13.66;74.56
10510;BME280;5303;53.266;10.410;2023-05-12T06:01:40;101654.28;;;13.76;74.38
10510;BME280;5303;53.266;10.410;2023-05-12T06:04:05;101654.25;;;13.90;74.61
10510;BME280;5303;53.266;10.410;2023-05-12T06:06:31;101660.38;;;14.04;72.62
10510;BME280;5303;53.266;10.410;2023-05-12T06:08:56;101669.22;;;14.12;71.29
10510;BME280;5303;53.266;10.410;2023-05-12T06:11:22;101666.50;;;14.23;69.59
10510;BME280;5303;53.266;10.410;2023-05-12T06:13:47;101665.59;;;14.31;69.35
10510;BME280;5303;53.266;10.410;2023-05-12T06:16:12;101675.28;;;14.41;69.35
10510;BME280;5303;53.266;10.410;2023-05-12T06:18:38;101673.41;;;14.60;67.59
10510;BME280;5303;53.266;10.410;2023-05-12T06:21:04;101675.09;;;14.75;68.10
10510;BME280;5303;53.266;10.410;2023-05-12T06:23:29;101662.56;;;14.95;68.03
10510;BME280;5303;53.266;10.410;2023-05-12T06:25:55;101673.06;;;15.14;64.71
10510;BME280;5303;53.266;10.410;2023-05-12T06:28:20;101673.88;;;15.19;65.04
10510;BME280;5303;53.266;10.410;2023-05-12T06:30:45;101673.78;;;15.30;64.53
10510;BME280;5303;53.266;10.410;2023-05-12T06:33:11;101676.28;;;15.49;65.19
10510;BME280;5303;53.266;10.410;2023-05-12T06:35:36;101680.59;;;15.60;64.71
10510;BME280;5303;53.266;10.410;2023-05-12T06:38:01;101677.13;;;15.51;64.13
10510;BME280;5303;53.266;10.410;2023-05-12T06:40:26;101684.22;;;15.54;63.55
10510;BME280;5303;53.266;10.410;2023-05-12T06:42:52;101692.91;;;15.73;62.82
10510;BME280;5303;53.266;10.410;2023-05-12T06:45:17;101689.44;;;15.68;62.87
10510;BME280;5303;53.266;10.410;2023-05-12T06:47:42;101685.88;;;15.67;61.82
10510;BME280;5303;53.266;10.410;2023-05-12T06:50:08;101687.50;;;15.82;62.10
10510;BME280;5303;53.266;10.410;2023-05-12T06:52:34;101685.59;;;15.93;61.90
10510;BME280;5303;53.266;10.410;2023-05-12T06:55:00;101695.34;;;15.93;60.97
10510;BME280;5303;53.266;10.410;2023-05-12T06:57:25;101692.47;;;16.12;61.13
10510;BME280;5303;53.266;10.410;2023-05-12T06:59:50;101695.91;;;16.22;61.47
10510;BME280;5303;53.266;10.410;2023-05-12T07:02:15;101696.03;;;16.11;60.73
10510;BME280;5303;53.266;10.410;2023-05-12T07:04:41;101696.88;;;16.13;62.34
10510;BME280;5303;53.266;10.410;2023-05-12T07:07:06;101702.25;;;16.12;59.91
10510;BME280;5303;53.266;10.410;2023-05-12T07:09:31;101704.91;;;16.10;58.65
10510;BME280;5303;53.266;10.410;2023-05-12T07:11:57;101705.88;;;16.05;57.91
10510;BME280;5303;53.266;10.410;2023-05-12T07:14:23;101706.66;;;16.15;59.59
10510;BME280;5303;53.266;10.410;2023-05-12T07:16:48;101711.94;;;16.18;59.14
10510;BME280;5303;53.266;10.410;2023-05-12T07:19:14;101706.50;;;16.27;59.17
10510;BME280;5303;53.266;10.410;2023-05-12T07:21:39;101710.00;;;16.32;59.65
10510;BME280;5303;53.266;10.410;2023-05-12T07:24:05;101701.00;;;16.40;58.84
10510;BME280;5303;53.266;10.410;2023-05-12T07:26:30;101699.03;;;16.56;58.81
10510;BME280;5303;53.266;10.410;2023-05-12T07:28:55;101712.34;;;16.55;58.06
10510;BME280;5303;53.266;10.410;2023-05-12T07:31:21;101710.44;;;16.66;58.13
10510;BME280;5303;53.266;10.410;2023-05-12T07:33:46;101714.09;;;16.59;57.69
10510;BME280;5303;53.266;10.410;2023-05-12T07:36:12;101710.31;;;16.78;55.48
10510;BME280;5303;53.266;10.410;2023-05-12T07:38:37;101709.41;;;16.78;57.21
10510;BME280;5303;53.266;10.410;2023-05-12T07:41:02;101708.41;;;16.85;54.40
10510;BME280;5303;53.266;10.410;2023-05-12T07:43:28;101710.31;;;16.77;54.99
10510;BME280;5303;53.266;10.410;2023-05-12T07:45:53;101703.28;;;16.71;56.48
10510;BME280;5303;53.266;10.410;2023-05-12T07:48:20;101711.25;;;16.73;55.77
10510;BME280;5303;53.266;10.410;2023-05-12T07:50:45;101713.88;;;16.77;57.30
10510;BME280;5303;53.266;10.410;2023-05-12T07:53:11;101707.59;;;16.80;56.85
10510;BME280;5303;53.266;10.410;2023-05-12T07:55:36;101719.75;;;16.99;55.66
10510;BME280;5303;53.266;10.410;2023-05-12T07:58:01;101710.81;;;17.03;55.14
10510;BME280;5303;53.266;10.410;2023-05-12T08:00:27;101708.81;;;17.16;54.10
10510;BME280;5303;53.266;10.410;2023-05-12T08:02:52;101705.19;;;17.21;54.25
10510;BME280;5303;53.266;10.410;2023-05-12T08:05:18;101711.97;;;17.41;54.47
10510;BME280;5303;53.266;10.410;2023-05-12T08:07:43;101713.94;;;17.30;53.21
10510;BME280;5303;53.266;10.410;2023-05-12T08:10:10;101719.91;;;17.45;53.87
10510;BME280;5303;53.266;10.410;2023-05-12T08:12:40;101719.47;;;17.71;52.57
10510;BME280;5303;53.266;10.410;2023-05-12T08:15:15;101717.59;;;17.76;51.72
10510;BME280;5303;53.266;10.410;2023-05-12T08:17:41;101712.16;;;17.82;52.43
10510;BME280;5303;53.266;10.410;2023-05-12T08:20:06;101712.94;;;17.88;52.17
10510;BME280;5303;53.266;10.410;2023-05-12T08:22:33;101714.13;;;17.73;51.17
10510;BME280;5303;53.266;10.410;2023-05-12T08:24:58;101714.75;;;17.85;51.22
10510;BME280;5303;53.266;10.410;2023-05-12T08:27:23;101710.28;;;17.86;50.34
10510;BME280;5303;53.266;10.410;2023-05-12T08:29:48;101717.28;;;17.93;50.80
10510;BME280;5303;53.266;10.410;2023-05-12T08:32:14;101713.75;;;17.93;51.89
10510;BME280;5303;53.266;10.410;2023-05-12T08:34:40;101724.75;;;18.22;49.82
10510;BME280;5303;53.266;10.410;2023-05-12T08:37:06;101718.59;;;18.19;49.32
10510;BME280;5303;53.266;10.410;2023-05-12T08:39:31;101720.34;;;18.18;49.29
10510;BME280;5303;53.266;10.410;2023-05-12T08:42:17;101725.66;;;18.21;50.36
10510;BME280;5303;53.266;10.410;2023-05-12T08:44:46;101722.03;;;18.24;50.79
10510;BME280;5303;53.266;10.410;2023-05-12T08:47:12;101722.72;;;18.33;49.90
10510;BME280;5303;53.266;10.410;2023-05-12T08:49:40;101718.16;;;18.40;50.17
10510;BME280;5303;53.266;10.410;2023-05-12T08:52:07;101709.91;;;18.51;47.54
10510;BME280;5303;53.266;10.410;2023-05-12T08:54:34;101709.91;;;18.51;47.92
10510;BME280;5303;53.266;10.410;2023-05-12T08:57:00;101713.38;;;18.54;48.91
10510;BME280;5303;53.266;10.410;2023-05-12T08:59:26;101710.59;;;18.59;50.19
10510;BME280;5303;53.266;10.410;2023-05-12T09:01:53;101716.81;;;18.61;49.03
10510;BME280;5303;53.266;10.410;2023-05-12T09:04:18;101709.31;;;18.78;48.63
10510;BME280;5303;53.266;10.410;2023-05-12T09:06:44;101709.94;;;18.89;48.32
10510;BME280;5303;53.266;10.410;2023-05-12T09:09:12;101704.94;;;19.13;46.71
10510;BME280;5303;53.266;10.410;2023-05-12T09:11:39;101709.28;;;19.17;45.51
10510;BME280;5303;53.266;10.410;2023-05-12T09:14:13;101715.03;;;19.37;45.44
10510;BME280;5303;53.266;10.410;2023-05-12T09:16:42;101712.25;;;19.40;43.72
10510;BME280;5303;53.266;10.410;2023-05-12T09:19:08;101714.09;;;19.38;41.71
10510;BME280;5303;53.266;10.410;2023-05-12T09:21:33;101700.50;;;19.47;43.24
10510;BME280;5303;53.266;10.410;2023-05-12T09:24:00;101707.78;;;19.42;45.37
10510;BME280;5303;53.266;10.410;2023-05-12T09:26:30;101707.16;;;19.67;40.74
10510;BME280;5303;53.266;10.410;2023-05-12T09:29:04;101706.38;;;19.63;40.05
10510;BME280;5303;53.266;10.410;2023-05-12T09:31:32;101703.59;;;19.66;40.20
10510;BME280;5303;53.266;10.410;2023-05-12T09:33:58;101706.81;;;19.79;40.58
10510;BME280;5303;53.266;10.410;2023-05-12T09:36:26;101714.13;;;19.74;39.15
10510;BME280;5303;53.266;10.410;2023-05-12T09:39:05;101700.88;;;19.68;41.01
10510;BME280;5303;53.266;10.410;2023-05-12T09:41:35;101701.38;;;19.82;41.05
10510;BME280;5303;53.266;10.410;2023-05-12T09:44:01;101706.72;;;19.82;42.80
10510;BME280;5303;53.266;10.410;2023-05-12T09:46:26;101707.75;;;19.78;43.10
10510;BME280;5303;53.266;10.410;2023-05-12T09:48:54;101692.16;;;19.92;40.52
10510;BME280;5303;53.266;10.410;2023-05-12T09:51:20;101693.97;;;19.93;39.74
10510;BME280;5303;53.266;10.410;2023-05-12T09:53:45;101697.13;;;20.07;39.71
10510;BME280;5303;53.266;10.410;2023-05-12T09:56:15;101695.63;;;19.97;39.44
10510;BME280;5303;53.266;10.410;2023-05-12T09:58:42;101692.13;;;19.95;39.46
10510;BME280;5303;53.266;10.410;2023-05-12T10:01:11;101685.03;;;20.24;39.27
10510;BME280;5303;53.266;10.410;2023-05-12T10:03:37;101687.53;;;20.30;39.45
10510;BME280;5303;53.266;10.410;2023-05-12T10:06:07;101685.00;;;20.25;39.20
10510;BME280;5303;53.266;10.410;2023-05-12T10:08:43;101689.53;;;20.23;38.63
10510;BME280;5303;53.266;10.410;2023-05-12T10:11:11;101688.41;;;20.30;37.43
10510;BME280;5303;53.266;10.410;2023-05-12T10:13:37;101696.34;;;20.04;40.34
10510;BME280;5303;53.266;10.410;2023-05-12T10:16:03;101693.00;;;19.96;40.62
10510;BME280;5303;53.266;10.410;2023-05-12T10:18:30;101692.25;;;19.89;37.50
10510;BME280;5303;53.266;10.410;2023-05-12T10:20:58;101701.38;;;19.83;39.22
10510;BME280;5303;53.266;10.410;2023-05-12T10:23:25;101698.69;;;19.82;37.76
10510;BME280;5303;53.266;10.410;2023-05-12T10:25:53;101689.00;;;19.78;38.92
10510;BME280;5303;53.266;10.410;2023-05-12T10:28:22;101688.59;;;19.93;37.50
10510;BME280;5303;53.266;10.410;2023-05-12T10:30:48;101691.81;;;20.06;39.96
10510;BME280;5303;53.266;10.410;2023-05-12T10:33:14;101690.75;;;20.41;36.95
10510;BME280;5303;53.266;10.410;2023-05-12T10:35:41;101684.72;;;20.65;34.78
10510;BME280;5303;53.266;10.410;2023-05-12T10:38:09;101689.28;;;20.62;36.91
10510;BME280;5303;53.266;10.410;2023-05-12T10:41:26;101690.84;;;20.69;36.85
10510;BME280;5303;53.266;10.410;2023-05-12T10:43:37;101688.41;;;20.61;36.16
10510;BME280;5303;53.266;10.410;2023-05-12T10:48:51;101686.03;;;20.51;34.58
10510;BME280;5303;53.266;10.410;2023-05-12T10:51:19;101693.03;;;20.56;35.39
10510;BME280;5303;53.266;10.410;2023-05-12T10:53:50;101684.78;;;20.62;34.38
10510;BME280;5303;53.266;10.410;2023-05-12T10:56:21;101694.22;;;20.76;35.89
10510;BME280;5303;53.266;10.410;2023-05-12T10:59:25;101696.63;;;20.85;33.53
10510;BME280;5303;53.266;10.410;2023-05-12T11:04:36;101685.03;;;20.84;33.19
10510;BME280;5303;53.266;10.410;2023-05-12T11:07:03;101678.63;;;20.88;33.47
10510;BME280;5303;53.266;10.410;2023-05-12T11:09:29;101685.38;;;21.00;32.31
10510;BME280;5303;53.266;10.410;2023-05-12T11:11:55;101677.28;;;21.02;34.58
10510;BME280;5303;53.266;10.410;2023-05-12T11:14:20;101667.00;;;21.14;32.54
10510;BME280;5303;53.266;10.410;2023-05-12T11:16:46;101680.09;;;21.26;32.11
10510;BME280;5303;53.266;10.410;2023-05-12T11:19:11;101675.41;;;21.32;31.17
10510;BME280;5303;53.266;10.410;2023-05-12T11:21:37;101672.88;;;21.53;30.33
10510;BME280;5303;53.266;10.410;2023-05-12T11:24:03;101677.97;;;21.61;30.85
10510;BME280;5303;53.266;10.410;2023-05-12T11:26:29;101688.91;;;21.55;29.38
10510;BME280;5303;53.266;10.410;2023-05-12T11:28:57;101677.47;;;21.50;28.38
10510;BME280;5303;53.266;10.410;2023-05-12T11:31:23;101683.97;;;21.43;29.92
10510;BME280;5303;53.266;10.410;2023-05-12T11:33:49;101689.28;;;21.46;29.65
10510;BME280;5303;53.266;10.410;2023-05-12T11:36:17;101688.66;;;21.38;29.72
10510;BME280;5303;53.266;10.410;2023-05-12T11:38:49;101687.84;;;21.36;30.08
10510;BME280;5303;53.266;10.410;2023-05-12T11:41:23;101687.41;;;21.48;33.40
10510;BME280;5303;53.266;10.410;2023-05-12T11:43:49;101683.66;;;21.52;31.13
10510;BME280;5303;53.266;10.410;2023-05-12T11:46:27;101679.06;;;21.55;30.14
10510;BME280;5303;53.266;10.410;2023-05-12T11:48:57;101689.72;;;21.59;32.20
10510;BME280;5303;53.266;10.410;2023-05-12T11:51:23;101694.16;;;21.84;30.46
10510;BME280;5303;53.266;10.410;2023-05-12T11:53:50;101693.44;;;21.79;29.76
10510;BME280;5303;53.266;10.410;2023-05-12T11:56:20;101697.50;;;21.91;29.56
10510;BME280;5303;53.266;10.410;2023-05-12T11:58:53;101697.72;;;21.85;30.41
10510;BME280;5303;53.266;10.410;2023-05-12T12:01:19;101698.50;;;21.89;28.78
10510;BME280;5303;53.266;10.410;2023-05-12T12:03:45;101691.53;;;21.83;29.91
10510;BME280;5303;53.266;10.410;2023-05-12T12:06:12;101691.19;;;21.92;28.85
10510;BME280;5303;53.266;10.410;2023-05-12T12:08:48;101697.72;;;21.60;28.60
10510;BME280;5303;53.266;10.410;2023-05-12T12:11:16;101696.47;;;21.44;29.25
10510;BME280;5303;53.266;10.410;2023-05-12T12:13:50;101688.13;;;21.26;29.07
10510;BME280;5303;53.266;10.410;2023-05-12T12:16:24;101691.91;;;21.47;30.56
10510;BME280;5303;53.266;10.410;2023-05-12T12:18:51;101703.78;;;21.65;29.30
10510;BME280;5303;53.266;10.410;2023-05-12T12:21:17;101694.53;;;21.49;31.69
10510;BME280;5303;53.266;10.410;2023-05-12T12:23:42;101702.06;;;21.38;30.48
10510;BME280;5303;53.266;10.410;2023-05-12T12:26:08;101709.59;;;21.26;30.73
10510;BME280;5303;53.266;10.410;2023-05-12T12:28:33;101701.81;;;21.17;30.59
10510;BME280;5303;53.266;10.410;2023-05-12T12:30:59;101693.97;;;21.11;30.80
10510;BME280;5303;53.266;10.410;2023-05-12T12:33:25;101693.50;;;21.26;30.92
10510;BME280;5303;53.266;10.410;2023-05-12T12:35:50;101701.78;;;21.45;29.87
10510;BME280;5303;53.266;10.410;2023-05-12T12:38:15;101695.72;;;21.40;27.44
10510;BME280;5303;53.266;10.410;2023-05-12T12:40:40;101686.72;;;21.41;28.21
10510;BME280;5303;53.266;10.410;2023-05-12T12:43:06;101683.03;;;21.44;28.06
10510;BME280;5303;53.266;10.410;2023-05-12T12:45:32;101686.78;;;21.65;29.09
10510;BME280;5303;53.266;10.410;2023-05-12T12:47:57;101683.22;;;21.64;28.92
10510;BME280;5303;53.266;10.410;2023-05-12T12:50:23;101685.78;;;21.69;30.78
10510;BME280;5303;53.266;10.410;2023-05-12T12:52:49;101683.19;;;21.66;30.30